Terminal Aerodrome Forecast
Issued by NWS Indianapolis, IN

Home | Current Version | Previous Version | Text Only | Print | Product List | Glossary On
Versions: 1 2 3 4 5 6 7 8 9 10 11 12 13 14 15 16 17 18 19 20 21 22 23 24
815
FTUS43 KIND 242020 AAA
TAFIND
TAF AMD
KIND 242020Z 2420/2524 21019G27KT P6SM BKN040
     FM250000 19012KT P6SM BKN050
     FM251000 16009KT P6SM VCSH OVC050
     FM251500 17011G22KT P6SM VCSH BKN070
     FM251800 18011G22KT P6SM -SHRA OVC035
     FM252300 15009KT P6SM -SHRA OVC030=

USA.gov is the U.S. government's official web portal to all federal, state and local government web resources and services.